createdAt,value
2017-07-20T00:02:01.894Z,21.26
2017-07-20T00:04:27.792Z,21.31
2017-07-20T00:06:53.830Z,21.23
2017-07-20T00:09:19.800Z,21.24
2017-07-20T00:11:45.750Z,21.17
2017-07-20T00:14:11.672Z,21.23
2017-07-20T00:16:37.638Z,21.17
2017-07-20T00:19:03.494Z,21.24
2017-07-20T00:21:29.500Z,21.23
2017-07-20T00:23:55.467Z,21.17
2017-07-20T00:26:21.390Z,21.18
2017-07-20T00:28:47.326Z,21.26
2017-07-20T00:31:13.188Z,21.00
2017-07-20T00:33:39.190Z,21.06
2017-07-20T00:36:05.337Z,21.06
2017-07-20T00:38:31.218Z,21.10
2017-07-20T00:40:57.136Z,21.21
2017-07-20T00:43:24.717Z,21.24
2017-07-20T00:45:51.122Z,21.29
2017-07-20T00:48:17.038Z,21.25
2017-07-20T00:50:43.058Z,21.11
2017-07-20T00:53:08.984Z,21.32
2017-07-20T00:55:34.916Z,21.23
2017-07-20T00:58:00.825Z,21.30
2017-07-20T01:00:26.728Z,21.23
2017-07-20T01:02:52.662Z,21.20
2017-07-20T01:05:18.602Z,21.30
2017-07-20T01:07:44.606Z,21.19
2017-07-20T01:10:10.503Z,21.28
2017-07-20T01:12:36.360Z,21.41
2017-07-20T01:15:02.296Z,21.32
2017-07-20T01:17:28.189Z,21.34
2017-07-20T01:19:54.106Z,21.11
2017-07-20T01:22:20.075Z,21.37
2017-07-20T01:24:46.129Z,21.51
2017-07-20T01:27:12.067Z,21.54
2017-07-20T01:29:37.979Z,21.51
2017-07-20T01:32:03.890Z,21.48
2017-07-20T01:34:29.822Z,21.33
2017-07-20T01:36:55.741Z,21.54
2017-07-20T01:39:21.622Z,21.59
2017-07-20T01:41:47.507Z,21.66
2017-07-20T01:44:13.412Z,21.62
2017-07-20T01:46:39.364Z,21.63
2017-07-20T01:49:05.246Z,21.59
2017-07-20T01:51:31.183Z,21.42
2017-07-20T01:53:57.106Z,21.24
2017-07-20T01:56:22.961Z,20.98
2017-07-20T01:58:48.970Z,20.99
2017-07-20T02:01:14.844Z,21.19
2017-07-20T02:03:40.795Z,21.11
2017-07-20T02:06:06.686Z,21.14
2017-07-20T02:08:32.622Z,21.01
2017-07-20T02:10:58.525Z,21.12
2017-07-20T02:13:24.627Z,21.11
2017-07-20T02:15:50.505Z,21.10
2017-07-20T02:18:16.396Z,21.15
2017-07-20T02:20:42.329Z,20.94
2017-07-20T02:23:08.182Z,20.45
2017-07-20T02:25:34.099Z,21.02
2017-07-20T02:28:00.019Z,20.45
2017-07-20T02:30:25.882Z,20.73
2017-07-20T02:32:51.841Z,20.90
2017-07-20T02:35:17.762Z,20.97
2017-07-20T02:37:43.692Z,21.37
2017-07-20T02:40:09.577Z,21.20
2017-07-20T02:42:35.478Z,21.19
2017-07-20T02:45:01.368Z,21.15
2017-07-20T02:47:27.208Z,21.13
2017-07-20T02:49:53.773Z,21.37
2017-07-20T02:52:19.651Z,21.08
2017-07-20T02:54:45.506Z,21.37
2017-07-20T02:57:12.271Z,21.38
2017-07-20T02:59:38.100Z,21.09
2017-07-20T03:02:03.927Z,21.02
2017-07-20T03:04:29.775Z,21.16
2017-07-20T03:06:55.602Z,21.35
2017-07-20T03:09:21.456Z,21.59
2017-07-20T03:11:47.352Z,21.71
2017-07-20T03:14:13.212Z,21.49
2017-07-20T03:16:39.831Z,21.80
2017-07-20T03:19:05.705Z,21.90
2017-07-20T03:21:31.558Z,22.09
2017-07-20T03:23:57.456Z,22.07
2017-07-20T03:26:23.310Z,22.00
2017-07-20T03:28:49.108Z,21.94
2017-07-20T03:31:14.947Z,21.69
2017-07-20T03:33:40.845Z,21.53
2017-07-20T03:36:06.765Z,21.55
2017-07-20T03:38:32.612Z,21.60
2017-07-20T03:40:58.452Z,21.64
2017-07-20T03:43:24.260Z,21.74
2017-07-20T03:45:50.165Z,21.84
2017-07-20T03:48:16.057Z,21.81
2017-07-20T03:50:41.906Z,21.92
2017-07-20T03:53:07.804Z,22.02
2017-07-20T03:55:33.789Z,22.00
2017-07-20T03:57:59.633Z,22.07
2017-07-20T04:00:25.423Z,22.00
2017-07-20T04:02:51.257Z,21.93
2017-07-20T04:05:17.269Z,21.92
2017-07-20T04:07:43.089Z,21.93
2017-07-20T04:10:08.926Z,21.99
2017-07-20T04:12:34.750Z,21.84
2017-07-20T04:15:00.553Z,21.74
2017-07-20T04:17:26.370Z,21.65
2017-07-20T04:19:52.150Z,21.55
2017-07-20T04:22:17.992Z,21.46
2017-07-20T04:24:43.828Z,21.43
2017-07-20T04:27:09.662Z,21.51
2017-07-20T04:29:35.471Z,21.52
2017-07-20T04:32:01.269Z,21.50
2017-07-20T04:34:27.081Z,21.49
2017-07-20T04:36:52.861Z,21.43
2017-07-20T04:39:18.719Z,21.44
2017-07-20T04:41:44.549Z,21.36
2017-07-20T04:44:10.338Z,21.41
2017-07-20T04:46:36.163Z,21.41
2017-07-20T04:49:01.946Z,21.38
2017-07-20T04:51:27.814Z,21.38
2017-07-20T04:53:53.628Z,21.39
2017-07-20T04:56:19.436Z,21.40
2017-07-20T04:58:45.309Z,21.33
2017-07-20T05:01:11.222Z,21.33
2017-07-20T05:03:37.074Z,21.29
2017-07-20T05:06:02.878Z,21.37
2017-07-20T05:08:28.669Z,21.27
2017-07-20T05:10:54.541Z,21.37
2017-07-20T05:13:20.345Z,21.41
2017-07-20T05:15:46.161Z,21.44
2017-07-20T05:18:12.075Z,21.16
2017-07-20T05:20:37.979Z,21.35
2017-07-20T05:23:03.813Z,21.40
2017-07-20T05:25:29.615Z,21.32
2017-07-20T05:27:55.425Z,21.46
2017-07-20T05:30:21.294Z,21.44
2017-07-20T05:32:47.108Z,21.46
2017-07-20T05:35:13.021Z,21.37
2017-07-20T05:37:38.936Z,21.71
2017-07-20T05:40:04.765Z,21.79
2017-07-20T05:42:30.597Z,21.84
2017-07-20T05:44:56.402Z,21.93
2017-07-20T05:47:22.222Z,21.89
2017-07-20T05:49:48.015Z,21.95
2017-07-20T05:52:13.861Z,21.99
2017-07-20T05:54:39.671Z,21.95
2017-07-20T05:57:05.490Z,21.94
2017-07-20T05:59:31.393Z,22.02
2017-07-20T06:01:57.341Z,22.15
2017-07-20T06:04:23.145Z,22.10
2017-07-20T06:06:48.936Z,21.99
2017-07-20T06:09:14.785Z,22.04
2017-07-20T06:11:40.617Z,21.92
2017-07-20T06:14:06.465Z,22.03
2017-07-20T06:16:32.286Z,22.16
2017-07-20T06:18:58.111Z,22.33
2017-07-20T06:21:23.943Z,22.30
2017-07-20T06:23:49.786Z,22.37
2017-07-20T06:26:15.696Z,22.49
2017-07-20T06:28:41.593Z,22.57
2017-07-20T06:31:07.430Z,22.61
2017-07-20T06:33:33.230Z,22.90
2017-07-20T06:35:59.207Z,22.86
2017-07-20T06:38:25.065Z,22.77
2017-07-20T06:40:50.888Z,22.82
2017-07-20T06:43:16.677Z,22.77
2017-07-20T06:45:42.469Z,22.77
2017-07-20T06:48:08.308Z,22.89
2017-07-20T06:50:34.106Z,22.71
2017-07-20T06:52:59.932Z,22.68
2017-07-20T06:55:25.749Z,22.80
2017-07-20T06:57:51.564Z,22.63
2017-07-20T07:00:17.390Z,22.75
2017-07-20T07:02:43.192Z,22.93
2017-07-20T07:05:10.065Z,22.91
2017-07-20T07:07:35.866Z,23.19
2017-07-20T07:10:01.696Z,23.18
2017-07-20T07:12:27.487Z,23.23
2017-07-20T07:14:53.401Z,23.48
2017-07-20T07:17:19.233Z,23.60
2017-07-20T07:19:45.133Z,23.66
2017-07-20T07:22:10.996Z,23.68
2017-07-20T07:24:36.796Z,23.73
2017-07-20T07:27:02.576Z,23.89
2017-07-20T07:29:28.456Z,24.08
2017-07-20T07:31:55.045Z,24.08
2017-07-20T07:34:20.949Z,24.32
2017-07-20T07:36:46.936Z,24.42
2017-07-20T07:39:12.737Z,24.18
2017-07-20T07:41:38.523Z,24.14
2017-07-20T07:44:04.372Z,23.94
2017-07-20T07:46:30.206Z,23.90
2017-07-20T07:48:56.047Z,23.95
2017-07-20T07:51:21.870Z,23.91
2017-07-20T07:53:47.691Z,24.01
2017-07-20T07:56:13.509Z,23.99
2017-07-20T07:58:39.342Z,23.81
2017-07-20T08:01:05.175Z,23.74
2017-07-20T08:03:30.980Z,23.90
2017-07-20T08:05:56.825Z,23.88
2017-07-20T08:08:22.730Z,24.07
2017-07-20T08:10:48.574Z,24.08
2017-07-20T08:13:14.405Z,24.05
2017-07-20T08:15:40.260Z,24.27
2017-07-20T08:18:06.092Z,24.31
2017-07-20T08:20:31.881Z,24.32
2017-07-20T08:22:57.729Z,24.25
2017-07-20T08:25:23.533Z,24.34
2017-07-20T08:27:49.581Z,24.30
2017-07-20T08:30:15.457Z,24.17
2017-07-20T08:32:41.309Z,24.04
2017-07-20T08:35:07.155Z,23.98
2017-07-20T08:37:32.989Z,23.80
2017-07-20T08:39:58.860Z,23.59
2017-07-20T08:42:24.706Z,23.40
2017-07-20T08:44:50.504Z,23.04
2017-07-20T08:47:16.302Z,22.87
2017-07-20T08:49:42.205Z,22.59
2017-07-20T08:52:08.005Z,22.51
2017-07-20T08:54:33.913Z,22.47
2017-07-20T08:56:59.741Z,22.33
2017-07-20T08:59:25.678Z,22.20
2017-07-20T09:01:51.590Z,22.39
2017-07-20T09:04:19.041Z,22.38
2017-07-20T09:06:44.959Z,22.32
2017-07-20T09:09:10.940Z,22.45
2017-07-20T09:11:36.813Z,22.22
2017-07-20T09:14:02.796Z,22.07
2017-07-20T09:16:28.589Z,22.03
2017-07-20T09:18:54.403Z,21.81
2017-07-20T09:21:20.225Z,21.50
2017-07-20T09:23:46.073Z,20.95
2017-07-20T09:26:11.901Z,21.33
2017-07-20T09:28:37.815Z,21.37
2017-07-20T09:31:03.667Z,21.33
2017-07-20T09:33:29.499Z,21.21
2017-07-20T09:35:55.312Z,21.19
2017-07-20T09:38:21.137Z,21.16
2017-07-20T09:40:46.936Z,21.02
2017-07-20T09:43:12.747Z,21.01
2017-07-20T09:45:38.665Z,20.85
2017-07-20T09:48:04.469Z,21.03
2017-07-20T09:50:30.325Z,20.96
2017-07-20T09:52:56.254Z,20.90
2017-07-20T09:55:22.041Z,20.94
2017-07-20T09:57:47.869Z,20.86
2017-07-20T10:00:13.721Z,20.90
2017-07-20T10:02:39.507Z,20.73
2017-07-20T10:05:05.331Z,20.70
2017-07-20T10:07:31.112Z,20.69
2017-07-20T10:09:57.055Z,20.58
2017-07-20T10:12:22.872Z,20.73
2017-07-20T10:14:48.702Z,20.73
2017-07-20T10:17:14.703Z,20.88
2017-07-20T10:19:40.513Z,20.91
2017-07-20T10:22:06.352Z,20.55
2017-07-20T10:24:32.148Z,20.55
2017-07-20T10:26:58.112Z,20.77
2017-07-20T10:29:23.912Z,20.79
2017-07-20T10:31:49.700Z,20.63
2017-07-20T10:34:15.568Z,20.38
2017-07-20T10:36:41.372Z,20.27
2017-07-20T10:39:07.177Z,20.36
2017-07-20T10:41:33.019Z,20.23
2017-07-20T10:43:58.818Z,20.39
2017-07-20T10:46:24.625Z,20.22
2017-07-20T10:48:50.453Z,20.39
2017-07-20T10:51:16.348Z,20.38
2017-07-20T10:53:42.432Z,20.35
2017-07-20T10:56:08.300Z,20.27
2017-07-20T10:58:34.120Z,20.44
2017-07-20T11:01:00.077Z,20.34
2017-07-20T11:03:25.917Z,20.55
2017-07-20T11:05:51.797Z,20.87
2017-07-20T11:08:17.665Z,21.05
2017-07-20T11:10:43.458Z,22.08
2017-07-20T11:13:09.271Z,21.67
2017-07-20T11:15:35.097Z,21.49
2017-07-20T11:18:00.899Z,21.77
2017-07-20T11:20:26.746Z,22.16
2017-07-20T11:22:52.546Z,21.82
2017-07-20T11:25:18.328Z,21.43
2017-07-20T11:27:44.185Z,21.42
2017-07-20T11:30:09.992Z,21.02
2017-07-20T11:32:35.832Z,20.86
2017-07-20T11:35:01.629Z,20.54
2017-07-20T11:37:27.468Z,20.81
2017-07-20T11:39:53.266Z,20.32
2017-07-20T11:42:19.077Z,19.98
2017-07-20T11:44:44.991Z,20.13
2017-07-20T11:47:10.986Z,20.46
2017-07-20T11:49:36.847Z,20.64
2017-07-20T11:52:02.815Z,20.73
2017-07-20T11:54:28.652Z,21.22
2017-07-20T11:56:54.725Z,21.37
2017-07-20T11:59:20.640Z,21.51
2017-07-20T12:01:46.463Z,22.11
2017-07-20T12:04:12.283Z,22.24
2017-07-20T12:06:38.202Z,22.00
2017-07-20T12:09:04.098Z,22.29
2017-07-20T12:11:29.952Z,22.64
2017-07-20T12:13:55.840Z,22.19
2017-07-20T12:16:21.901Z,22.51
2017-07-20T12:18:47.774Z,22.68
2017-07-20T12:21:13.632Z,23.18
2017-07-20T12:23:39.472Z,23.42
2017-07-20T12:26:05.273Z,23.69
2017-07-20T12:28:31.132Z,22.58
2017-07-20T12:30:56.986Z,22.96
2017-07-20T12:33:22.974Z,22.55
2017-07-20T12:35:48.775Z,22.64
2017-07-20T12:38:14.640Z,23.22
2017-07-20T12:40:40.494Z,23.02
2017-07-20T12:43:06.493Z,23.15
2017-07-20T12:45:32.510Z,22.92
2017-07-20T12:47:58.513Z,23.17
2017-07-20T12:50:24.549Z,23.04
2017-07-20T12:52:50.572Z,23.79
2017-07-20T12:55:16.473Z,23.76
2017-07-20T12:57:42.305Z,24.28
2017-07-20T13:00:08.208Z,25.28
2017-07-20T13:02:34.064Z,25.90
2017-07-20T13:05:00.059Z,25.40
2017-07-20T13:07:26.006Z,24.79
2017-07-20T13:09:51.854Z,24.85
2017-07-20T13:12:17.693Z,24.86
2017-07-20T13:14:43.485Z,24.54
2017-07-20T13:17:09.337Z,24.56
2017-07-20T13:19:35.213Z,24.83
2017-07-20T13:22:01.753Z,24.96
2017-07-20T13:24:27.579Z,24.97
2017-07-20T13:26:53.379Z,24.53
2017-07-20T13:29:19.309Z,25.57
2017-07-20T13:31:45.152Z,24.80
2017-07-20T13:34:11.045Z,24.42
2017-07-20T13:36:36.883Z,25.59
2017-07-20T13:39:02.797Z,25.82
2017-07-20T13:41:28.692Z,27.30
2017-07-20T13:43:54.624Z,28.68
2017-07-20T13:46:20.709Z,28.72
2017-07-20T13:48:46.656Z,28.28
2017-07-20T13:51:12.484Z,27.53
2017-07-20T13:53:38.335Z,27.31
2017-07-20T13:56:04.306Z,27.61
2017-07-20T13:58:30.364Z,28.18
2017-07-20T14:00:56.402Z,27.37
2017-07-20T14:03:22.334Z,26.71
2017-07-20T14:05:48.180Z,27.91
2017-07-20T14:08:14.149Z,28.14
2017-07-20T14:10:39.967Z,28.01
2017-07-20T14:13:05.890Z,27.67
2017-07-20T14:15:31.820Z,26.19
2017-07-20T14:17:57.676Z,26.82
2017-07-20T14:20:23.492Z,26.38
2017-07-20T14:22:49.361Z,26.19
2017-07-20T14:25:15.285Z,26.44
2017-07-20T14:27:41.145Z,26.54
2017-07-20T14:30:06.948Z,26.81
2017-07-20T14:32:32.758Z,25.78
2017-07-20T14:34:58.702Z,26.50
2017-07-20T14:37:24.568Z,27.09
2017-07-20T14:39:50.394Z,27.28
2017-07-20T14:42:16.274Z,26.66
2017-07-20T14:44:42.129Z,27.61
2017-07-20T14:47:07.961Z,27.90
2017-07-20T14:49:33.931Z,28.63
2017-07-20T14:51:59.936Z,27.54
2017-07-20T14:54:25.778Z,26.18
2017-07-20T14:56:51.651Z,25.52
2017-07-20T14:59:17.582Z,25.68
2017-07-20T15:01:43.425Z,25.09
2017-07-20T15:04:09.310Z,24.97
2017-07-20T15:06:35.232Z,25.09
2017-07-20T15:09:01.049Z,24.67
2017-07-20T15:11:26.883Z,24.32
2017-07-20T15:13:52.704Z,24.54
2017-07-20T15:16:18.597Z,24.44
2017-07-20T15:18:44.532Z,24.11
2017-07-20T15:21:10.346Z,23.91
2017-07-20T15:23:36.205Z,23.57
2017-07-20T15:26:02.065Z,24.27
2017-07-20T15:28:27.970Z,23.74
2017-07-20T15:31:09.092Z,23.66
2017-07-20T15:33:35.069Z,23.38
2017-07-20T15:38:26.660Z,22.91
2017-07-20T15:40:52.524Z,22.85
2017-07-20T15:43:18.334Z,22.80
2017-07-20T15:45:44.161Z,22.64
2017-07-20T15:48:09.953Z,22.50
2017-07-20T15:50:35.799Z,22.22
2017-07-20T15:53:01.659Z,21.46
2017-07-20T15:55:27.572Z,20.89
2017-07-20T15:57:53.366Z,20.54
2017-07-20T16:00:19.214Z,20.57
2017-07-20T16:02:45.074Z,20.53
2017-07-20T16:05:10.877Z,20.93
2017-07-20T16:07:36.744Z,21.37
2017-07-20T16:10:02.549Z,21.28
2017-07-20T16:12:28.357Z,21.38
2017-07-20T16:14:54.218Z,21.56
2017-07-20T16:17:20.135Z,22.05
2017-07-20T16:19:46.122Z,21.97
2017-07-20T16:22:12.046Z,22.11
2017-07-20T16:24:37.856Z,22.28
2017-07-20T16:27:03.841Z,22.06
2017-07-20T16:29:29.668Z,22.09
2017-07-20T16:31:55.530Z,22.08
2017-07-20T16:34:21.656Z,22.01
2017-07-20T16:36:47.496Z,21.90
2017-07-20T16:39:13.296Z,21.71
2017-07-20T16:41:39.253Z,21.59
2017-07-20T16:44:05.140Z,21.56
2017-07-20T16:46:31.081Z,21.59
2017-07-20T16:48:57.093Z,21.64
2017-07-20T16:51:23.865Z,21.67
2017-07-20T16:53:49.667Z,21.70
2017-07-20T16:56:15.629Z,21.69
2017-07-20T16:58:41.485Z,22.33
2017-07-20T17:01:07.337Z,22.44
2017-07-20T17:03:33.133Z,22.23
2017-07-20T17:06:05.950Z,22.48
2017-07-20T17:08:31.769Z,22.48
2017-07-20T17:10:57.579Z,22.48
2017-07-20T17:13:23.412Z,22.46
2017-07-20T17:15:49.457Z,22.53
2017-07-20T17:18:15.296Z,22.50
2017-07-20T17:20:41.121Z,22.63
2017-07-20T17:23:06.913Z,22.96
2017-07-20T17:25:32.745Z,22.79
2017-07-20T17:27:58.564Z,22.79
2017-07-20T17:30:24.370Z,22.92
2017-07-20T17:32:50.236Z,22.85
2017-07-20T17:35:16.221Z,22.87
2017-07-20T17:37:42.064Z,23.11
2017-07-20T17:40:07.920Z,23.12
2017-07-20T17:42:33.904Z,23.14
2017-07-20T17:44:59.741Z,23.13
2017-07-20T17:47:25.577Z,23.29
2017-07-20T17:49:51.474Z,23.21
2017-07-20T17:52:17.390Z,23.09
2017-07-20T17:54:43.423Z,23.10
2017-07-20T17:57:09.456Z,22.95
2017-07-20T17:59:35.422Z,22.67
2017-07-20T18:02:01.207Z,22.83
2017-07-20T18:04:27.135Z,23.15
2017-07-20T18:06:53.237Z,22.84
2017-07-20T18:09:19.211Z,22.59
2017-07-20T18:11:45.172Z,22.43
2017-07-20T18:14:11.231Z,22.37
2017-07-20T18:16:37.178Z,22.43
2017-07-20T18:19:03.046Z,22.48
2017-07-20T18:21:29.280Z,22.39
2017-07-20T18:23:55.315Z,22.08
2017-07-20T18:26:21.450Z,21.97
2017-07-20T18:28:47.685Z,21.82
2017-07-20T18:31:13.708Z,21.70
2017-07-20T18:33:39.617Z,21.49
2017-07-20T18:36:05.509Z,21.62
2017-07-20T18:38:31.943Z,21.34
2017-07-20T18:40:57.819Z,21.18
2017-07-20T18:43:23.642Z,21.19
2017-07-20T18:45:49.465Z,21.36
2017-07-20T18:48:15.337Z,21.22
2017-07-20T18:50:41.246Z,20.94
2017-07-20T18:53:14.117Z,21.28
2017-07-20T18:55:39.949Z,20.85
2017-07-20T18:58:05.955Z,20.63
2017-07-20T19:00:32.025Z,20.46
2017-07-20T19:02:57.981Z,20.40
2017-07-20T19:05:23.860Z,20.42
2017-07-20T19:07:49.751Z,20.34
2017-07-20T19:10:15.613Z,20.11
2017-07-20T19:12:41.483Z,20.13
2017-07-20T19:15:07.316Z,20.07
2017-07-20T19:17:33.262Z,19.97
2017-07-20T19:19:59.155Z,19.87
2017-07-20T19:22:24.958Z,19.87
2017-07-20T19:24:50.781Z,19.81
2017-07-20T19:27:16.648Z,19.83
2017-07-20T19:29:42.622Z,19.69
2017-07-20T19:32:08.423Z,19.62
2017-07-20T19:34:34.237Z,19.66
2017-07-20T19:37:00.057Z,19.64
2017-07-20T19:39:40.865Z,19.50
2017-07-20T19:42:06.875Z,19.59
2017-07-20T19:44:32.797Z,19.40
2017-07-20T19:46:58.756Z,19.58
2017-07-20T19:49:24.720Z,19.63
2017-07-20T19:51:50.529Z,19.76
2017-07-20T19:54:16.468Z,19.77
2017-07-20T19:56:42.318Z,19.85
2017-07-20T19:59:08.169Z,19.90
2017-07-20T20:01:34.015Z,19.83
2017-07-20T20:03:59.836Z,19.77
2017-07-20T20:06:25.688Z,19.74
2017-07-20T20:08:51.630Z,19.60
2017-07-20T20:11:17.483Z,19.68
2017-07-20T20:13:43.310Z,19.54
2017-07-20T20:16:09.399Z,19.50
2017-07-20T20:18:35.380Z,19.66
2017-07-20T20:21:01.227Z,19.64
2017-07-20T20:23:27.159Z,19.70
2017-07-20T20:25:53.100Z,19.39
2017-07-20T20:28:18.969Z,19.82
2017-07-20T20:30:44.887Z,19.98
2017-07-20T20:33:10.746Z,19.90
2017-07-20T20:35:51.651Z,19.92
2017-07-20T20:38:17.509Z,19.85
2017-07-20T20:40:43.431Z,19.73
2017-07-20T20:43:09.233Z,19.55
2017-07-20T20:45:35.196Z,19.75
2017-07-20T20:48:01.168Z,19.77
2017-07-20T20:50:27.212Z,19.65
2017-07-20T20:52:53.261Z,19.63
2017-07-20T20:55:19.160Z,19.58
2017-07-20T20:57:45.010Z,19.64
2017-07-20T21:00:10.931Z,19.73
2017-07-20T21:02:36.947Z,19.63
2017-07-20T21:05:02.841Z,19.64
2017-07-20T21:07:28.649Z,19.49
2017-07-20T21:09:54.518Z,19.55
2017-07-20T21:12:20.413Z,19.63
2017-07-20T21:14:46.321Z,19.71
2017-07-20T21:17:12.268Z,19.54
2017-07-20T21:19:38.103Z,19.57
2017-07-20T21:22:03.915Z,19.36
2017-07-20T21:24:29.799Z,19.25
2017-07-20T21:26:55.725Z,19.34
2017-07-20T21:29:21.560Z,19.30
2017-07-20T21:31:47.376Z,19.12
2017-07-20T21:34:13.280Z,18.73
2017-07-20T21:36:39.262Z,19.02
2017-07-20T21:39:05.117Z,18.96
2017-07-20T21:41:30.928Z,18.88
2017-07-20T21:43:56.775Z,18.80
2017-07-20T21:46:22.678Z,18.74
2017-07-20T21:48:48.557Z,18.70
2017-07-20T21:51:14.413Z,18.61
2017-07-20T21:53:40.352Z,18.60
2017-07-20T21:56:06.272Z,18.46
2017-07-20T21:58:32.182Z,18.53
2017-07-20T22:00:58.105Z,18.46
2017-07-20T22:03:24.072Z,18.59
2017-07-20T22:05:49.943Z,18.63
2017-07-20T22:08:15.768Z,18.58
2017-07-20T22:10:41.735Z,18.38
2017-07-20T22:13:07.649Z,18.23
2017-07-20T22:15:33.591Z,18.30
2017-07-20T22:17:59.434Z,18.24
2017-07-20T22:20:25.245Z,18.30
2017-07-20T22:22:51.077Z,18.28
2017-07-20T22:25:16.987Z,18.31
2017-07-20T22:27:42.834Z,18.24
2017-07-20T22:30:08.676Z,18.30
2017-07-20T22:32:34.546Z,18.31
2017-07-20T22:35:00.409Z,18.28
2017-07-20T22:37:26.338Z,18.35
2017-07-20T22:39:52.162Z,17.94
2017-07-20T22:42:17.998Z,18.13
2017-07-20T22:44:43.879Z,18.17
2017-07-20T22:47:09.782Z,18.20
2017-07-20T22:49:35.682Z,18.14
2017-07-20T22:52:01.526Z,18.15
2017-07-20T22:54:27.482Z,18.08
2017-07-20T22:56:53.308Z,17.91
2017-07-20T22:59:19.136Z,17.97
2017-07-20T23:01:45.008Z,17.91
2017-07-20T23:04:11.027Z,17.88
2017-07-20T23:06:36.946Z,17.92
2017-07-20T23:09:02.826Z,17.78
2017-07-20T23:11:28.707Z,17.76
2017-07-20T23:13:54.643Z,17.77
2017-07-20T23:16:20.461Z,17.79
2017-07-20T23:18:46.298Z,17.73
2017-07-20T23:21:12.151Z,17.71
2017-07-20T23:23:38.134Z,17.58
2017-07-20T23:26:03.939Z,17.58
2017-07-20T23:28:36.676Z,17.59
2017-07-20T23:31:02.555Z,17.52
2017-07-20T23:33:28.406Z,17.53
2017-07-20T23:35:54.209Z,17.52
2017-07-20T23:38:20.068Z,17.45
2017-07-20T23:40:46.000Z,17.47
2017-07-20T23:43:11.825Z,17.38
2017-07-20T23:45:37.658Z,17.41
2017-07-20T23:48:03.501Z,17.33
2017-07-20T23:50:29.346Z,17.38
2017-07-20T23:52:55.227Z,17.34
2017-07-20T23:55:21.118Z,17.45
2017-07-20T23:57:46.968Z,17.25
